Time;durP1;ratioP1;P1;durP2;ratioP2;P2;SDS_P1;SDS_P2;PMS_P1;PMS_P2;Temp;Humidity;BMP_temperature;BMP_pressure;BME280_temperature;BME280_humidity;BME280_pressure;Samples;Min_cycle;Max_cycle;Signal;HPM_P1;HPM_P2
2023/07/26 00:01:25;;;;;;;0.10;0.10;;;;;;;;;;5149133;27;20047;-58
2023/07/26 00:03:55;;;;;;;0.10;0.10;;;;;;;;;;5150934;27;20062;-58
2023/07/26 00:06:20;;;;;;;0.10;0.10;;;;;;;;;;5153236;27;20043;-58
2023/07/26 00:08:46;;;;;;;0.10;0.10;;;;;;;;;;5153963;27;20095;-56
2023/07/26 00:11:11;;;;;;;0.20;0.20;;;;;;;;;;5140527;27;20394;-57
2023/07/26 00:13:37;;;;;;;0.20;0.20;;;;;;;;;;5133601;28;20039;-58
2023/07/26 00:16:02;;;;;;;0.10;0.10;;;;;;;;;;5148720;27;20051;-58
2023/07/26 00:18:28;;;;;;;0.20;0.20;;;;;;;;;;5154412;27;20062;-58
2023/07/26 00:20:54;;;;;;;0.10;0.10;;;;;;;;;;5144087;27;20043;-58
2023/07/26 00:23:19;;;;;;;0.10;0.10;;;;;;;;;;5143495;27;20047;-58
2023/07/26 00:25:44;;;;;;;0.10;0.10;;;;;;;;;;5154398;27;20042;-58
2023/07/26 00:28:10;;;;;;;0.10;0.10;;;;;;;;;;5154364;27;20376;-58
2023/07/26 00:30:35;;;;;;;0.10;0.10;;;;;;;;;;5152912;27;20054;-58
2023/07/26 00:33:01;;;;;;;0.10;0.10;;;;;;;;;;5154917;27;20049;-59
2023/07/26 00:35:28;;;;;;;0.10;0.10;;;;;;;;;;5154946;27;20452;-58
2023/07/26 00:37:53;;;;;;;0.10;0.10;;;;;;;;;;5154094;27;20089;-58
2023/07/26 00:40:19;;;;;;;0.10;0.10;;;;;;;;;;5150555;27;20046;-58
2023/07/26 00:42:44;;;;;;;0.10;0.10;;;;;;;;;;5143935;27;20074;-57
2023/07/26 00:45:10;;;;;;;0.10;0.10;;;;;;;;;;5149451;27;20062;-58
2023/07/26 00:47:36;;;;;;;0.10;0.10;;;;;;;;;;5133358;28;20054;-58
2023/07/26 00:50:02;;;;;;;0.10;0.10;;;;;;;;;;5136280;27;20093;-58
2023/07/26 00:52:27;;;;;;;0.10;0.10;;;;;;;;;;5153857;27;20095;-58
2023/07/26 00:54:55;;;;;;;0.10;0.10;;;;;;;;;;5153949;27;20050;-58
2023/07/26 00:57:21;;;;;;;0.10;0.10;;;;;;;;;;5154213;27;20074;-58
2023/07/26 00:59:47;;;;;;;0.10;0.10;;;;;;;;;;5153222;27;20134;-58
2023/07/26 01:02:12;;;;;;;0.10;0.10;;;;;;;;;;5153532;27;20072;-58
2023/07/26 01:04:38;;;;;;;0.10;0.10;;;;;;;;;;5154335;27;20316;-58
2023/07/26 01:07:09;;;;;;;0.10;0.10;;;;;;;;;;5154448;27;20047;-58
2023/07/26 01:09:43;;;;;;;0.10;0.10;;;;;;;;;;5154374;27;20039;-57
2023/07/26 01:12:13;;;;;;;0.10;0.10;;;;;;;;;;5152608;27;20395;-58
2023/07/26 01:14:50;;;;;;;0.10;0.10;;;;;;;;;;5153997;27;20420;-58
2023/07/26 01:17:15;;;;;;;0.10;0.10;;;;;;;;;;5153564;27;20060;-58
2023/07/26 01:19:41;;;;;;;0.10;0.10;;;;;;;;;;5153475;27;20047;-58
2023/07/26 01:22:07;;;;;;;0.10;0.10;;;;;;;;;;5153504;27;20074;-58
2023/07/26 01:24:32;;;;;;;0.13;0.13;;;;;;;;;;5153453;27;20084;-58
2023/07/26 01:26:58;;;;;;;0.10;0.10;;;;;;;;;;5153350;27;20047;-58
2023/07/26 01:29:23;;;;;;;0.10;0.10;;;;;;;;;;5153601;27;20084;-58
2023/07/26 01:31:51;;;;;;;0.10;0.10;;;;;;;;;;5152894;27;20051;-58
2023/07/26 01:34:17;;;;;;;0.10;0.10;;;;;;;;;;5153954;27;20046;-58
2023/07/26 01:36:43;;;;;;;0.10;0.10;;;;;;;;;;5153600;27;20384;-57
2023/07/26 01:39:10;;;;;;;0.20;0.20;;;;;;;;;;5146189;27;20224;-58
2023/07/26 01:41:36;;;;;;;0.10;0.10;;;;;;;;;;5151635;27;20099;-58
2023/07/26 01:44:02;;;;;;;0.10;0.10;;;;;;;;;;5152728;27;20055;-58
2023/07/26 01:46:27;;;;;;;0.10;0.10;;;;;;;;;;5152987;27;20527;-58
2023/07/26 01:48:53;;;;;;;0.17;0.17;;;;;;;;;;5153072;27;20081;-58
2023/07/26 01:51:19;;;;;;;0.10;0.10;;;;;;;;;;5152907;27;20505;-58
2023/07/26 01:53:44;;;;;;;0.17;0.17;;;;;;;;;;5153372;27;20532;-58
2023/07/26 01:56:10;;;;;;;0.10;0.10;;;;;;;;;;5152855;27;20043;-58
2023/07/26 01:58:35;;;;;;;0.10;0.10;;;;;;;;;;5153270;27;20429;-58
2023/07/26 02:01:03;;;;;;;0.10;0.10;;;;;;;;;;5151977;27;20559;-58
2023/07/26 02:03:28;;;;;;;0.10;0.10;;;;;;;;;;5151158;27;20047;-58
2023/07/26 02:05:54;;;;;;;0.10;0.10;;;;;;;;;;5153274;27;20379;-56
2023/07/26 02:08:19;;;;;;;0.10;0.10;;;;;;;;;;5153169;27;20137;-57
2023/07/26 02:10:45;;;;;;;0.10;0.10;;;;;;;;;;5143144;27;20448;-58
2023/07/26 02:13:11;;;;;;;0.10;0.10;;;;;;;;;;5132292;28;20078;-58
2023/07/26 02:15:36;;;;;;;0.10;0.10;;;;;;;;;;5131766;28;20054;-58
2023/07/26 02:18:02;;;;;;;0.10;0.10;;;;;;;;;;5132064;28;20054;-58
2023/07/26 02:20:27;;;;;;;0.10;0.10;;;;;;;;;;5139031;27;20054;-58
2023/07/26 02:22:53;;;;;;;0.10;0.10;;;;;;;;;;5152936;27;20050;-58
2023/07/26 02:25:19;;;;;;;0.10;0.10;;;;;;;;;;5153038;27;20066;-58
2023/07/26 02:27:44;;;;;;;0.10;0.10;;;;;;;;;;5151476;27;20039;-58
2023/07/26 02:30:10;;;;;;;0.10;0.10;;;;;;;;;;5151625;27;20051;-59
2023/07/26 02:32:36;;;;;;;0.10;0.10;;;;;;;;;;5152857;27;20050;-59
2023/07/26 02:35:01;;;;;;;0.15;0.15;;;;;;;;;;5152379;27;20046;-58
2023/07/26 02:37:27;;;;;;;0.10;0.10;;;;;;;;;;5152481;27;20423;-57
2023/07/26 02:39:52;;;;;;;0.20;0.20;;;;;;;;;;5162488;27;20463;-58
2023/07/26 02:42:18;;;;;;;0.10;0.10;;;;;;;;;;5142845;27;20087;-57
2023/07/26 02:44:45;;;;;;;0.10;0.10;;;;;;;;;;5142801;27;20065;-56
2023/07/26 02:47:10;;;;;;;0.10;0.10;;;;;;;;;;5148611;27;20116;-58
2023/07/26 02:49:36;;;;;;;0.10;0.10;;;;;;;;;;5152449;27;20546;-58
2023/07/26 02:52:01;;;;;;;0.10;0.10;;;;;;;;;;5132622;27;20111;-58
2023/07/26 02:54:27;;;;;;;0.10;0.10;;;;;;;;;;5132091;28;20515;-58
2023/07/26 02:56:52;;;;;;;0.10;0.10;;;;;;;;;;5146693;27;20057;-58
2023/07/26 02:59:18;;;;;;;0.15;0.15;;;;;;;;;;5151687;27;20093;-58
2023/07/26 03:01:44;;;;;;;0.10;0.10;;;;;;;;;;5145278;27;20049;-58
2023/07/26 03:04:10;;;;;;;0.10;0.10;;;;;;;;;;5152002;27;20098;-58
2023/07/26 03:06:36;;;;;;;0.10;0.10;;;;;;;;;;5152138;27;20046;-57
2023/07/26 03:09:02;;;;;;;0.10;0.10;;;;;;;;;;5152297;27;20099;-57
2023/07/26 03:11:27;;;;;;;0.10;0.10;;;;;;;;;;5136215;27;20058;-58
2023/07/26 03:13:53;;;;;;;0.10;0.10;;;;;;;;;;5131539;28;20145;-58
2023/07/26 03:16:18;;;;;;;0.10;0.10;;;;;;;;;;5131182;28;20608;-58
2023/07/26 03:18:44;;;;;;;0.10;0.10;;;;;;;;;;5131058;28;20051;-58
2023/07/26 03:21:09;;;;;;;0.20;0.20;;;;;;;;;;5130937;27;20137;-58
2023/07/26 03:23:35;;;;;;;0.10;0.10;;;;;;;;;;5151484;27;20043;-58
2023/07/26 03:26:01;;;;;;;0.10;0.10;;;;;;;;;;5152118;27;20043;-58
2023/07/26 03:28:27;;;;;;;0.10;0.10;;;;;;;;;;5151861;27;20059;-58
2023/07/26 03:30:52;;;;;;;0.10;0.10;;;;;;;;;;5151562;27;20050;-58
2023/07/26 03:33:18;;;;;;;0.10;0.10;;;;;;;;;;5151572;27;20133;-58
2023/07/26 03:35:43;;;;;;;0.10;0.10;;;;;;;;;;5151664;27;20055;-58
2023/07/26 03:38:09;;;;;;;0.10;0.10;;;;;;;;;;5151072;27;20098;-57
2023/07/26 03:40:34;;;;;;;0.30;0.30;;;;;;;;;;5157247;27;20050;-57
2023/07/26 03:43:00;;;;;;;0.10;0.10;;;;;;;;;;5136829;27;20407;-58
2023/07/26 03:45:27;;;;;;;0.10;0.10;;;;;;;;;;5154178;27;20039;-58
2023/07/26 03:47:53;;;;;;;0.10;0.10;;;;;;;;;;5153992;27;20050;-58
2023/07/26 03:50:19;;;;;;;0.10;0.10;;;;;;;;;;5138961;27;20050;-58
2023/07/26 03:52:45;;;;;;;0.10;0.10;;;;;;;;;;5154450;27;20532;-58
2023/07/26 03:55:10;;;;;;;0.10;0.10;;;;;;;;;;5154771;27;20047;-58
2023/07/26 03:57:36;;;;;;;0.10;0.10;;;;;;;;;;5154230;27;20391;-58
2023/07/26 04:00:02;;;;;;;0.10;0.10;;;;;;;;;;5153653;27;20058;-58
2023/07/26 04:02:27;;;;;;;0.10;0.10;;;;;;;;;;5154286;27;20039;-58
2023/07/26 04:04:53;;;;;;;0.10;0.10;;;;;;;;;;5153704;27;20108;-58
2023/07/26 04:07:18;;;;;;;0.10;0.10;;;;;;;;;;5154018;27;20431;-58
2023/07/26 04:09:44;;;;;;;0.10;0.10;;;;;;;;;;5153516;27;20074;-58
2023/07/26 04:12:09;;;;;;;0.10;0.10;;;;;;;;;;5132722;27;20075;-58
2023/07/26 04:14:35;;;;;;;0.10;0.10;;;;;;;;;;5133650;28;20168;-58
2023/07/26 04:17:00;;;;;;;0.10;0.10;;;;;;;;;;5133055;28;20108;-58
2023/07/26 04:19:26;;;;;;;0.10;0.10;;;;;;;;;;5133573;28;20047;-58
2023/07/26 04:21:52;;;;;;;0.10;0.10;;;;;;;;;;5132848;27;20445;-58
2023/07/26 04:24:17;;;;;;;0.10;0.10;;;;;;;;;;5144226;27;20055;-58
2023/07/26 04:26:43;;;;;;;0.20;0.20;;;;;;;;;;5154995;27;20047;-58
2023/07/26 04:29:08;;;;;;;0.17;0.17;;;;;;;;;;5154936;27;20123;-58
2023/07/26 04:31:34;;;;;;;0.10;0.10;;;;;;;;;;5151963;27;20461;-58
2023/07/26 04:33:59;;;;;;;0.10;0.10;;;;;;;;;;5154553;27;20129;-58
2023/07/26 04:36:25;;;;;;;0.10;0.10;;;;;;;;;;5153628;27;20051;-58
2023/07/26 04:38:50;;;;;;;0.20;0.20;;;;;;;;;;5162946;27;20034;-58
2023/07/26 04:41:16;;;;;;;0.10;0.10;;;;;;;;;;5154130;27;20445;-57
2023/07/26 04:43:41;;;;;;;0.10;0.10;;;;;;;;;;5154243;27;20055;-58
2023/07/26 04:46:07;;;;;;;0.10;0.10;;;;;;;;;;5153371;27;20050;-58
2023/07/26 04:48:32;;;;;;;0.10;0.10;;;;;;;;;;5154430;27;20050;-58
2023/07/26 04:50:58;;;;;;;0.10;0.10;;;;;;;;;;5153227;27;20503;-58
2023/07/26 04:53:24;;;;;;;0.10;0.10;;;;;;;;;;5154624;27;20070;-58
2023/07/26 04:55:50;;;;;;;0.10;0.10;;;;;;;;;;5153993;27;20046;-58
2023/07/26 04:58:16;;;;;;;0.10;0.10;;;;;;;;;;5154367;27;20043;-58
2023/07/26 05:00:41;;;;;;;0.10;0.10;;;;;;;;;;5146415;27;20096;-58
2023/07/26 05:03:08;;;;;;;0.10;0.10;;;;;;;;;;5154107;27;20475;-58
2023/07/26 05:05:34;;;;;;;0.10;0.10;;;;;;;;;;5153853;27;20078;-58
2023/07/26 05:07:59;;;;;;;0.13;0.13;;;;;;;;;;5153881;27;20447;-58
2023/07/26 05:10:25;;;;;;;0.10;0.10;;;;;;;;;;5152896;27;20074;-57
2023/07/26 05:12:51;;;;;;;0.10;0.10;;;;;;;;;;5153980;27;20057;-57
2023/07/26 05:15:17;;;;;;;0.10;0.10;;;;;;;;;;5154141;27;20571;-58
2023/07/26 05:17:43;;;;;;;0.10;0.10;;;;;;;;;;5153592;27;20042;-58
2023/07/26 05:20:09;;;;;;;0.10;0.10;;;;;;;;;;5153633;27;20054;-58
2023/07/26 05:22:34;;;;;;;0.10;0.10;;;;;;;;;;5153970;27;20047;-58
2023/07/26 05:25:00;;;;;;;0.10;0.10;;;;;;;;;;5153515;27;20050;-58
2023/07/26 05:27:26;;;;;;;0.10;0.10;;;;;;;;;;5153644;27;20043;-58
2023/07/26 05:29:53;;;;;;;0.20;0.20;;;;;;;;;;5151594;27;20104;-58
2023/07/26 05:32:19;;;;;;;0.20;0.20;;;;;;;;;;5144869;27;20061;-58
2023/07/26 05:34:44;;;;;;;0.10;0.10;;;;;;;;;;5153799;27;20043;-58
2023/07/26 05:37:10;;;;;;;0.10;0.10;;;;;;;;;;5139127;27;20044;-58
2023/07/26 05:39:35;;;;;;;0.10;0.10;;;;;;;;;;5150884;27;20050;-58
2023/07/26 05:42:01;;;;;;;0.10;0.10;;;;;;;;;;5152745;27;20038;-58
2023/07/26 05:44:26;;;;;;;0.10;0.10;;;;;;;;;;5153627;27;20042;-57
2023/07/26 05:46:52;;;;;;;0.10;0.10;;;;;;;;;;5152724;27;20046;-58
2023/07/26 05:49:17;;;;;;;0.10;0.10;;;;;;;;;;5152644;27;20050;-58
2023/07/26 05:51:43;;;;;;;0.10;0.10;;;;;;;;;;5152150;27;20051;-58
2023/07/26 05:54:09;;;;;;;0.10;0.10;;;;;;;;;;5153156;27;20055;-58
2023/07/26 05:56:34;;;;;;;0.10;0.10;;;;;;;;;;5153107;27;20476;-58
2023/07/26 05:59:00;;;;;;;0.10;0.10;;;;;;;;;;5153029;27;20451;-58
2023/07/26 06:01:25;;;;;;;0.10;0.10;;;;;;;;;;5151111;27;20054;-58
2023/07/26 06:03:51;;;;;;;0.10;0.10;;;;;;;;;;5151232;27;20418;-58
2023/07/26 06:06:16;;;;;;;0.10;0.10;;;;;;;;;;5152289;27;20127;-58
2023/07/26 06:08:42;;;;;;;0.10;0.10;;;;;;;;;;5152284;27;20043;-58
2023/07/26 06:11:07;;;;;;;0.10;0.10;;;;;;;;;;5148635;27;20256;-58
2023/07/26 06:13:33;;;;;;;0.10;0.10;;;;;;;;;;5152941;27;20399;-58
2023/07/26 06:15:58;;;;;;;0.20;0.20;;;;;;;;;;5151952;27;20059;-58
2023/07/26 06:18:24;;;;;;;0.10;0.10;;;;;;;;;;5152572;27;20050;-58
2023/07/26 06:20:50;;;;;;;0.10;0.10;;;;;;;;;;5142411;27;20097;-58
2023/07/26 06:23:15;;;;;;;0.10;0.10;;;;;;;;;;5131999;28;20047;-58
2023/07/26 06:25:41;;;;;;;0.10;0.10;;;;;;;;;;5131478;28;20150;-58
2023/07/26 06:28:06;;;;;;;0.10;0.10;;;;;;;;;;5144645;27;20130;-58
2023/07/26 06:30:32;;;;;;;0.10;0.10;;;;;;;;;;5152112;27;20125;-58
2023/07/26 06:32:57;;;;;;;0.10;0.10;;;;;;;;;;5152360;27;20043;-58
2023/07/26 06:35:23;;;;;;;0.10;0.10;;;;;;;;;;5151193;27;20470;-58
2023/07/26 06:37:48;;;;;;;0.10;0.10;;;;;;;;;;5152592;27;20046;-58
2023/07/26 06:40:14;;;;;;;0.10;0.10;;;;;;;;;;5151971;27;20095;-58
2023/07/26 06:42:39;;;;;;;0.10;0.10;;;;;;;;;;5152161;27;20382;-57
2023/07/26 06:45:05;;;;;;;0.10;0.10;;;;;;;;;;5152519;27;20057;-58
2023/07/26 06:47:31;;;;;;;0.10;0.10;;;;;;;;;;5151766;27;20091;-58
2023/07/26 06:49:56;;;;;;;0.10;0.10;;;;;;;;;;5148981;27;20046;-58
2023/07/26 06:52:22;;;;;;;0.10;0.10;;;;;;;;;;5132405;27;20047;-58
2023/07/26 06:54:47;;;;;;;0.10;0.10;;;;;;;;;;5151418;27;20043;-58
2023/07/26 06:57:13;;;;;;;0.10;0.10;;;;;;;;;;5152176;27;20388;-57
2023/07/26 06:59:38;;;;;;;0.10;0.10;;;;;;;;;;5152050;27;20062;-57
2023/07/26 07:02:05;;;;;;;0.10;0.10;;;;;;;;;;5131138;27;20054;-58
2023/07/26 07:04:32;;;;;;;0.10;0.10;;;;;;;;;;5149958;27;20043;-58
2023/07/26 07:06:57;;;;;;;0.10;0.10;;;;;;;;;;5151303;27;20051;-58
2023/07/26 07:09:24;;;;;;;0.10;0.10;;;;;;;;;;5151444;27;20410;-58
2023/07/26 07:11:50;;;;;;;0.10;0.10;;;;;;;;;;5148799;27;20051;-58
2023/07/26 07:14:15;;;;;;;0.10;0.10;;;;;;;;;;5151929;27;20141;-56
2023/07/26 07:16:41;;;;;;;0.10;0.10;;;;;;;;;;5155463;27;20069;-58
2023/07/26 07:19:06;;;;;;;0.10;0.10;;;;;;;;;;5155990;27;20268;-58
2023/07/26 07:21:32;;;;;;;0.10;0.10;;;;;;;;;;5155346;27;20141;-58
2023/07/26 07:23:58;;;;;;;0.10;0.10;;;;;;;;;;5156050;27;20051;-58
2023/07/26 07:26:24;;;;;;;0.10;0.10;;;;;;;;;;5155770;27;20090;-58
2023/07/26 07:28:49;;;;;;;0.10;0.10;;;;;;;;;;5155608;27;20050;-58
2023/07/26 07:31:15;;;;;;;0.10;0.10;;;;;;;;;;5142183;27;20380;-58
2023/07/26 07:33:41;;;;;;;0.10;0.10;;;;;;;;;;5135092;28;20423;-58
2023/07/26 07:36:06;;;;;;;0.10;0.10;;;;;;;;;;5145792;27;20043;-58
2023/07/26 07:38:32;;;;;;;0.10;0.10;;;;;;;;;;5155479;27;20043;-58
2023/07/26 07:40:58;;;;;;;0.10;0.10;;;;;;;;;;5154406;27;20457;-58
2023/07/26 07:43:24;;;;;;;0.10;0.10;;;;;;;;;;5154663;27;20047;-58
2023/07/26 07:45:49;;;;;;;0.10;0.10;;;;;;;;;;5155354;27;20087;-58
2023/07/26 07:48:15;;;;;;;0.10;0.10;;;;;;;;;;5155219;27;20137;-58
2023/07/26 07:50:41;;;;;;;0.10;0.10;;;;;;;;;;5152999;27;20392;-58
2023/07/26 07:53:07;;;;;;;0.10;0.10;;;;;;;;;;5155055;27;20070;-58
2023/07/26 07:55:36;;;;;;;0.10;0.10;;;;;;;;;;5154413;27;20054;-58
2023/07/26 07:58:02;;;;;;;0.10;0.10;;;;;;;;;;5155267;27;20047;-58
2023/07/26 08:00:28;;;;;;;0.10;0.10;;;;;;;;;;5148508;27;20133;-58
2023/07/26 08:02:53;;;;;;;0.10;0.10;;;;;;;;;;5134464;28;20543;-58
2023/07/26 08:05:19;;;;;;;0.10;0.10;;;;;;;;;;5145209;27;20061;-58
2023/07/26 08:07:44;;;;;;;0.10;0.10;;;;;;;;;;5154568;27;20099;-58
2023/07/26 08:10:10;;;;;;;0.10;0.10;;;;;;;;;;5153021;27;20054;-58
2023/07/26 08:12:35;;;;;;;0.10;0.10;;;;;;;;;;5154967;27;20039;-58
2023/07/26 08:15:01;;;;;;;0.10;0.10;;;;;;;;;;5154421;27;20047;-57
2023/07/26 08:17:27;;;;;;;0.10;0.10;;;;;;;;;;5153947;27;20039;-57
2023/07/26 08:19:52;;;;;;;0.10;0.10;;;;;;;;;;5153126;27;20047;-58
2023/07/26 08:22:18;;;;;;;0.10;0.10;;;;;;;;;;5133989;28;20055;-58
2023/07/26 08:24:44;;;;;;;0.10;0.10;;;;;;;;;;5134160;27;20039;-58
2023/07/26 08:27:10;;;;;;;0.10;0.10;;;;;;;;;;5133517;28;20047;-58
2023/07/26 08:29:36;;;;;;;0.10;0.10;;;;;;;;;;5151432;27;20055;-58
2023/07/26 08:32:03;;;;;;;0.20;0.20;;;;;;;;;;5150595;27;20039;-58
2023/07/26 08:34:29;;;;;;;0.10;0.10;;;;;;;;;;5153168;27;20078;-58
2023/07/26 08:36:55;;;;;;;0.10;0.10;;;;;;;;;;5147020;27;20095;-58
2023/07/26 08:39:20;;;;;;;0.10;0.10;;;;;;;;;;5154262;27;20046;-58
2023/07/26 08:42:02;;;;;;;0.20;0.20;;;;;;;;;;5152764;27;20133;-58
2023/07/26 08:44:28;;;;;;;0.17;0.17;;;;;;;;;;5153504;27;20047;-58
2023/07/26 08:46:54;;;;;;;0.13;0.13;;;;;;;;;;5153298;27;20055;-58
2023/07/26 08:49:19;;;;;;;0.25;0.20;;;;;;;;;;5154372;27;20109;-58
2023/07/26 08:51:45;;;;;;;0.13;0.13;;;;;;;;;;5153342;27;20054;-58
2023/07/26 08:54:11;;;;;;;0.10;0.10;;;;;;;;;;5153801;27;20483;-58
2023/07/26 08:56:36;;;;;;;0.10;0.10;;;;;;;;;;5153879;27;20082;-58
2023/07/26 08:59:02;;;;;;;0.10;0.10;;;;;;;;;;5153576;27;20058;-58
2023/07/26 09:01:29;;;;;;;0.10;0.10;;;;;;;;;;5153717;27;20047;-58
2023/07/26 09:03:54;;;;;;;0.10;0.10;;;;;;;;;;5153756;27;20501;-58
2023/07/26 09:06:25;;;;;;;0.10;0.10;;;;;;;;;;5153478;27;20086;-58
2023/07/26 09:08:51;;;;;;;0.10;0.10;;;;;;;;;;5153499;27;20051;-58
2023/07/26 09:11:21;;;;;;;0.10;0.10;;;;;;;;;;5153038;27;20050;-57
2023/07/26 09:13:54;;;;;;;0.10;0.10;;;;;;;;;;5153277;27;20042;-57
2023/07/26 09:16:20;;;;;;;0.10;0.10;;;;;;;;;;5152660;27;20051;-58
2023/07/26 09:19:02;;;;;;;0.10;0.10;;;;;;;;;;5153219;27;20058;-58
2023/07/26 09:21:29;;;;;;;0.10;0.10;;;;;;;;;;5138271;27;20046;-58
2023/07/26 09:23:57;;;;;;;0.10;0.10;;;;;;;;;;5133172;28;20150;-58
2023/07/26 09:26:43;;;;;;;0.10;0.10;;;;;;;;;;5133416;28;20495;-58
2023/07/26 09:29:10;;;;;;;0.10;0.10;;;;;;;;;;5117714;28;20043;-58
2023/07/26 09:31:38;;;;;;;0.10;0.10;;;;;;;;;;5152002;27;20061;-58
2023/07/26 09:34:04;;;;;;;;;;;;;;;;;;5153731;27;20066;-58
2023/07/26 09:36:45;;;;;;;0.10;0.10;;;;;;;;;;5134401;27;20279;-58
2023/07/26 09:39:12;;;;;;;0.10;0.10;;;;;;;;;;5143143;27;20042;-58
2023/07/26 09:41:38;;;;;;;0.10;0.10;;;;;;;;;;5152046;27;20039;-58
2023/07/26 09:44:05;;;;;;;0.10;0.10;;;;;;;;;;5152923;27;20551;-58
2023/07/26 09:46:52;;;;;;;0.10;0.10;;;;;;;;;;5152588;27;20070;-58
2023/07/26 09:49:19;;;;;;;0.10;0.10;;;;;;;;;;5137769;27;20101;-58
2023/07/26 09:51:48;;;;;;;0.10;0.10;;;;;;;;;;5153051;27;20053;-57
2023/07/26 09:54:17;;;;;;;0.10;0.10;;;;;;;;;;5153245;27;20039;-57
2023/07/26 09:56:43;;;;;;;0.10;0.10;;;;;;;;;;5153430;27;20047;-58
2023/07/26 09:59:09;;;;;;;0.10;0.10;;;;;;;;;;5152812;27;20050;-57
2023/07/26 10:01:39;;;;;;;0.10;0.10;;;;;;;;;;5152931;27;20460;-58
2023/07/26 10:04:05;;;;;;;0.10;0.10;;;;;;;;;;5153183;27;20110;-58
2023/07/26 10:06:32;;;;;;;0.10;0.10;;;;;;;;;;5152989;27;20053;-58
2023/07/26 10:08:59;;;;;;;0.15;0.15;;;;;;;;;;5152628;27;20181;-58
2023/07/26 10:11:27;;;;;;;0.15;0.15;;;;;;;;;;5150640;27;20107;-58
2023/07/26 10:13:53;;;;;;;0.10;0.10;;;;;;;;;;5152506;27;20043;-58
2023/07/26 10:16:19;;;;;;;0.20;0.20;;;;;;;;;;5152789;27;20114;-58
2023/07/26 10:18:47;;;;;;;0.20;0.20;;;;;;;;;;5152965;27;20129;-57
2023/07/26 10:21:13;;;;;;;0.10;0.10;;;;;;;;;;5139528;27;20075;-57
2023/07/26 10:23:41;;;;;;;0.10;0.10;;;;;;;;;;5131780;28;20047;-58
2023/07/26 10:26:07;;;;;;;0.15;0.15;;;;;;;;;;5132387;28;20210;-58
2023/07/26 10:28:33;;;;;;;0.20;0.20;;;;;;;;;;5132132;28;20411;-58
2023/07/26 10:31:00;;;;;;;0.10;0.10;;;;;;;;;;5131880;27;20047;-58
2023/07/26 10:33:27;;;;;;;0.10;0.10;;;;;;;;;;5151355;27;20553;-58
2023/07/26 10:35:53;;;;;;;0.10;0.10;;;;;;;;;;5152110;27;20050;-58
2023/07/26 10:38:19;;;;;;;0.10;0.10;;;;;;;;;;5152850;27;20047;-58
2023/07/26 10:40:45;;;;;;;0.10;0.10;;;;;;;;;;5151830;27;20047;-58
2023/07/26 10:43:28;;;;;;;0.10;0.10;;;;;;;;;;5151987;27;20046;-58
2023/07/26 10:45:54;;;;;;;0.20;0.20;;;;;;;;;;5151886;27;20085;-57
2023/07/26 10:50:57;;;;;;;0.20;0.20;;;;;;;;;;5190799;27;20140;-58
2023/07/26 10:53:33;;;;;;;0.10;0.10;;;;;;;;;;5170003;27;20054;-57
2023/07/26 10:56:07;;;;;;;0.10;0.10;;;;;;;;;;5168988;27;20080;-58
2023/07/26 10:58:33;;;;;;;0.10;0.10;;;;;;;;;;5168573;27;20415;-58
2023/07/26 11:01:01;;;;;;;0.10;0.10;;;;;;;;;;5164265;27;20102;-58
2023/07/26 11:03:27;;;;;;;0.10;0.10;;;;;;;;;;5148947;27;20395;-58
2023/07/26 11:05:55;;;;;;;0.10;0.10;;;;;;;;;;5149208;27;20479;-58
2023/07/26 11:08:21;;;;;;;0.10;0.10;;;;;;;;;;5149251;27;20868;-58
2023/07/26 11:10:51;;;;;;;0.20;0.20;;;;;;;;;;5151584;27;20065;-58
2023/07/26 11:13:18;;;;;;;0.10;0.10;;;;;;;;;;5168392;27;20091;-57
2023/07/26 11:15:45;;;;;;;0.10;0.10;;;;;;;;;;5161599;27;20062;-58
2023/07/26 11:18:37;;;;;;;0.10;0.10;;;;;;;;;;5147810;27;20057;-58
2023/07/26 11:21:03;;;;;;;0.10;0.10;;;;;;;;;;5141660;27;20043;-58
2023/07/26 11:23:28;;;;;;;0.10;0.10;;;;;;;;;;5127965;28;20085;-58
2023/07/26 11:25:56;;;;;;;0.10;0.10;;;;;;;;;;5127796;28;20053;-58
2023/07/26 11:28:23;;;;;;;0.10;0.10;;;;;;;;;;5127618;28;20051;-58
2023/07/26 11:30:49;;;;;;;0.10;0.10;;;;;;;;;;5127249;27;20105;-58
2023/07/26 11:36:07;;;;;;;0.10;0.10;;;;;;;;;;5185539;27;20511;-58
2023/07/26 11:38:32;;;;;;;;;;;;;;;;;;5165283;27;20054;-58
2023/07/26 11:40:58;;;;;;;0.20;0.20;;;;;;;;;;5158049;27;19962;-58
2023/07/26 11:43:25;;;;;;;0.10;0.10;;;;;;;;;;5157620;27;20078;-58
2023/07/26 11:45:51;;;;;;;0.10;0.10;;;;;;;;;;5168281;27;20133;-58
2023/07/26 11:48:18;;;;;;;0.10;0.10;;;;;;;;;;5168075;27;20054;-58
2023/07/26 11:50:44;;;;;;;0.10;0.10;;;;;;;;;;5151381;27;20476;-58
2023/07/26 11:53:11;;;;;;;0.10;0.10;;;;;;;;;;5127800;28;20059;-58
2023/07/26 11:55:39;;;;;;;0.10;0.10;;;;;;;;;;5127895;28;20069;-58
2023/07/26 11:58:06;;;;;;;0.10;0.10;;;;;;;;;;5136734;27;20076;-58
2023/07/26 12:00:33;;;;;;;0.10;0.10;;;;;;;;;;5131322;27;20070;-58
2023/07/26 12:03:00;;;;;;;0.10;0.10;;;;;;;;;;5132751;27;20059;-58
2023/07/26 12:05:26;;;;;;;0.10;0.10;;;;;;;;;;5127572;27;20134;-57
2023/07/26 12:07:53;;;;;;;0.10;0.10;;;;;;;;;;5127805;27;20043;-58
2023/07/26 12:10:26;;;;;;;0.10;0.10;;;;;;;;;;5121564;27;20131;-58
2023/07/26 12:12:51;;;;;;;0.10;0.10;;;;;;;;;;5126537;27;20078;-58
2023/07/26 12:15:17;;;;;;;0.10;0.10;;;;;;;;;;5147071;27;20058;-58
2023/07/26 12:17:59;;;;;;;0.10;0.10;;;;;;;;;;5143325;27;20076;-58
2023/07/26 12:20:25;;;;;;;0.10;0.10;;;;;;;;;;5121640;27;20124;-58
2023/07/26 12:23:05;;;;;;;0.10;0.10;;;;;;;;;;5127430;27;20048;-58
2023/07/26 12:25:34;;;;;;;0.10;0.10;;;;;;;;;;5127216;28;20396;-58
2023/07/26 12:28:00;;;;;;;0.10;0.10;;;;;;;;;;5127744;27;20047;-57
2023/07/26 12:30:27;;;;;;;0.10;0.10;;;;;;;;;;5120888;28;20054;-58
2023/07/26 12:33:09;;;;;;;0.10;0.10;;;;;;;;;;5110722;28;20484;-58
2023/07/26 12:35:35;;;;;;;0.10;0.10;;;;;;;;;;5130828;27;20052;-58
2023/07/26 12:38:08;;;;;;;0.10;0.10;;;;;;;;;;5126932;27;20415;-59
2023/07/26 12:40:34;;;;;;;0.10;0.10;;;;;;;;;;5133167;27;20142;-58
2023/07/26 12:43:00;;;;;;;0.10;0.10;;;;;;;;;;5127806;28;20058;-58
2023/07/26 12:45:25;;;;;;;0.10;0.10;;;;;;;;;;5139990;27;20042;-58
2023/07/26 12:47:51;;;;;;;0.10;0.10;;;;;;;;;;5113602;28;20055;-58
2023/07/26 12:50:16;;;;;;;0.10;0.10;;;;;;;;;;5108734;28;20472;-58
2023/07/26 12:52:42;;;;;;;0.10;0.10;;;;;;;;;;5112090;28;20051;-57
2023/07/26 12:55:08;;;;;;;0.10;0.10;;;;;;;;;;5113513;28;20248;-57
2023/07/26 12:57:34;;;;;;;0.10;0.10;;;;;;;;;;5113441;28;20051;-58
2023/07/26 12:59:59;;;;;;;0.10;0.10;;;;;;;;;;5112146;28;20055;-58
2023/07/26 13:02:25;;;;;;;0.10;0.10;;;;;;;;;;5113194;28;20043;-58
2023/07/26 13:04:51;;;;;;;0.10;0.10;;;;;;;;;;5125466;28;20433;-57
2023/07/26 13:07:16;;;;;;;0.10;0.10;;;;;;;;;;5134083;28;20092;-57
2023/07/26 13:09:42;;;;;;;0.10;0.10;;;;;;;;;;5133656;28;20051;-57
2023/07/26 13:12:07;;;;;;;0.10;0.10;;;;;;;;;;5112792;28;20047;-57
2023/07/26 13:14:33;;;;;;;0.10;0.10;;;;;;;;;;5120857;28;20423;-57
2023/07/26 13:16:59;;;;;;;0.15;0.15;;;;;;;;;;5120991;28;20388;-57
2023/07/26 13:19:24;;;;;;;0.10;0.10;;;;;;;;;;5121288;28;20050;-57
2023/07/26 13:21:50;;;;;;;0.10;0.10;;;;;;;;;;5115522;28;20054;-57
2023/07/26 13:24:16;;;;;;;0.10;0.10;;;;;;;;;;5112962;28;20081;-56
2023/07/26 13:26:41;;;;;;;0.10;0.10;;;;;;;;;;5113389;28;20050;-57
2023/07/26 13:29:07;;;;;;;0.10;0.10;;;;;;;;;;5113101;28;20043;-57
2023/07/26 13:31:32;;;;;;;0.15;0.15;;;;;;;;;;5097015;28;20051;-58
2023/07/26 13:33:58;;;;;;;0.10;0.10;;;;;;;;;;5105948;28;20550;-58
2023/07/26 13:36:23;;;;;;;0.10;0.10;;;;;;;;;;5112778;28;20393;-60
2023/07/26 13:38:49;;;;;;;0.10;0.10;;;;;;;;;;5117406;28;20043;-60
2023/07/26 13:41:15;;;;;;;0.20;0.20;;;;;;;;;;5112316;28;20140;-60
2023/07/26 13:43:41;;;;;;;0.10;0.10;;;;;;;;;;5112804;28;20048;-60
2023/07/26 13:46:06;;;;;;;0.10;0.10;;;;;;;;;;5116021;28;20043;-60
2023/07/26 13:48:49;;;;;;;0.10;0.10;;;;;;;;;;5112650;28;20496;-60
2023/07/26 13:51:14;;;;;;;0.10;0.10;;;;;;;;;;5121245;28;20099;-59
2023/07/26 13:53:40;;;;;;;0.10;0.10;;;;;;;;;;5124801;28;20081;-60
2023/07/26 13:56:05;;;;;;;0.10;0.10;;;;;;;;;;5112730;28;20040;-60
2023/07/26 13:58:31;;;;;;;0.10;0.10;;;;;;;;;;5111565;28;20048;-60
2023/07/26 14:00:56;;;;;;;0.30;0.30;;;;;;;;;;5104252;28;20055;-60
2023/07/26 14:03:22;;;;;;;0.20;0.20;;;;;;;;;;5127363;28;20142;-60
2023/07/26 14:05:48;;;;;;;0.10;0.10;;;;;;;;;;5131363;28;20059;-60
2023/07/26 14:08:13;;;;;;;0.10;0.10;;;;;;;;;;5112463;28;20487;-60
2023/07/26 14:10:40;;;;;;;0.10;0.10;;;;;;;;;;5103088;28;20072;-60
2023/07/26 14:13:05;;;;;;;0.10;0.10;;;;;;;;;;5091823;28;20525;-60
2023/07/26 14:15:35;;;;;;;0.10;0.10;;;;;;;;;;5102751;28;20058;-60
2023/07/26 14:18:00;;;;;;;0.10;0.10;;;;;;;;;;5126557;28;20441;-60
2023/07/26 14:20:26;;;;;;;0.10;0.10;;;;;;;;;;5126292;28;20062;-60
2023/07/26 14:22:51;;;;;;;0.10;0.10;;;;;;;;;;5130962;28;20443;-60
2023/07/26 14:25:17;;;;;;;0.10;0.10;;;;;;;;;;5124356;28;20074;-59
2023/07/26 14:27:42;;;;;;;0.10;0.10;;;;;;;;;;5111905;28;20044;-60
2023/07/26 14:30:08;;;;;;;0.10;0.10;;;;;;;;;;5107630;28;20166;-60
2023/07/26 14:32:34;;;;;;;0.10;0.10;;;;;;;;;;5103142;28;20059;-60
2023/07/26 14:34:59;;;;;;;0.10;0.10;;;;;;;;;;5132085;28;20498;-60
2023/07/26 14:37:25;;;;;;;0.10;0.10;;;;;;;;;;5132249;28;20130;-60
2023/07/26 14:39:51;;;;;;;0.10;0.10;;;;;;;;;;5121914;28;20415;-60
2023/07/26 14:42:16;;;;;;;0.10;0.10;;;;;;;;;;5108333;28;20414;-60
2023/07/26 14:44:41;;;;;;;0.10;0.10;;;;;;;;;;5131819;28;20096;-60